CheckWX is a tool to help pilots better visualize weather data.  It is not intended as a substitute for an official pre-flight weather briefing.

16:03:18 UTC

EETN METAR
Tallinn Airport
Tallinn, Estonia
Current

13 mins ago

EETN 261550Z 21008KT 170V250 9000 -SHRA BKN009 SCT015CB OVC033 09/08 Q0996 RESHRA TEMPO 4000 SHRA
Observed
May-26 @ 15:50 UTC
Wind
  • 210° at 8 KTS
Visibility
8,996 meters
Flight Rules
IFR
Conditions
Light Rain
Cloud Levels
  • Broken at 900' AGL
  • Scattered at 1,500' AGL
  • Overcast at 3,300' AGL
Temperature
C / 48°F
Dewpoint
C / 46°F
Humidity
94%
Altimeter
29.41" Hg
Pressure
995.92 hPa
Previous

43 mins ago

EETN 261520Z 21009KT 9000 -SHRA BKN011 SCT017CB OVC040 09/08 Q0996 TEMPO 4000 SHRA
Observed
May-26 @ 15:20 UTC
Wind
  • 210° at 9 KTS
Visibility
8,996 meters
Flight Rules
MVFR
Conditions
Light Rain
Cloud Levels
  • Broken at 1,100' AGL
  • Scattered at 1,700' AGL
  • Overcast at 4,000' AGL
Temperature
C / 48°F
Dewpoint
C / 46°F
Humidity
94%
Altimeter
29.41" Hg
Pressure
995.92 hPa
Previous

1 hour ago

EETN 261450Z 22014KT 9999 -SHRA SCT011 SCT016CB OVC034 10/08 Q0996 TEMPO 4000 SHRA
Observed
May-26 @ 14:50 UTC
Wind
  • 220° at 14 KTS
Visibility
10,000+ meters
Flight Rules
VFR
Conditions
Light Rain
Cloud Levels
  • Scattered at 1,100' AGL
  • Scattered at 1,600' AGL
  • Overcast at 3,400' AGL
Temperature
10°C / 50°F
Dewpoint
C / 46°F
Humidity
88%
Altimeter
29.41" Hg
Pressure
995.92 hPa